AIZ321 LLBG-UBBB
Flight info
| Callsign | AIZ321 |
|---|---|
| Flight time | 2h 42m |
| Altitude | 33997 |
| Route | DAFNA W13 VELOX N71 DESPO DCT VOLBE DCT VESAR UL620 EVKIT UT284 SIV UW706 TBN UN61 NOLGA N61 LAGAS M747 SUBUT T923 ERLEV |
| Aircraft | A320/M-SDE3FGHIRWY/LB1 |
Departure
| Time | 2026-05-05 16:16 |
|---|---|
| Airport | Ben Gurion International Airport (LLBG) |
Arrival
| Time | 2026-05-05 18:59 |
|---|---|
| Airport | Heydar Aliyev International Airport (UBBB) |
| Time | Latitude | Longitude | Altitude | Speed | Heading |
|---|---|---|---|---|---|
| 2026-05-05 16:11 | 32.00106 | 34.87577 | 118 ft | 2 kts | 31° |
| 2026-05-05 16:12 | 32.00105 | 34.87576 | 120 ft | 0 kts | 31° |
| 2026-05-05 16:12 | 32.00199 | 34.87642 | 117 ft | 20 kts | 30° |
| 2026-05-05 16:13 | 32.00578 | 34.87908 | 118 ft | 25 kts | 31° |
| 2026-05-05 16:13 | 32.00736 | 34.88018 | 118 ft | 27 kts | 30° |
| 2026-05-05 16:13 | 32.00895 | 34.88135 | 118 ft | 27 kts | 32° |
| 2026-05-05 16:14 | 32.01222 | 34.88375 | 117 ft | 28 kts | 34° |
| 2026-05-05 16:14 | 32.01468 | 34.88723 | 117 ft | 25 kts | 66° |
| 2026-05-05 16:15 | 32.01536 | 34.89080 | 118 ft | 20 kts | 78° |
| 2026-05-05 16:15 | 32.01750 | 34.89097 | 115 ft | 15 kts | 282° |
| 2026-05-05 16:16 | 32.01591 | 34.88080 | 120 ft | 131 kts | 260° |
| 2026-05-05 16:16 | 32.01190 | 34.85518 | 1112 ft | 166 kts | 262° |
| 2026-05-05 16:17 | 32.00643 | 34.82792 | 2222 ft | 177 kts | 259° |
| 2026-05-05 16:17 | 32.00346 | 34.81367 | 2676 ft | 181 kts | 258° |
| 2026-05-05 16:18 | 31.99732 | 34.78415 | 3496 ft | 199 kts | 258° |
| 2026-05-05 16:18 | 31.99390 | 34.76761 | 3737 ft | 219 kts | 258° |
| 2026-05-05 16:18 | 31.99713 | 34.72988 | 4637 ft | 249 kts | 289° |
| 2026-05-05 16:19 | 32.00317 | 34.71072 | 5424 ft | 250 kts | 289° |
| 2026-05-05 16:19 | 32.00922 | 34.69141 | 6182 ft | 253 kts | 289° |
| 2026-05-05 16:19 | 32.02157 | 34.65192 | 7663 ft | 260 kts | 289° |
| 2026-05-05 16:20 | 32.02803 | 34.60978 | 9281 ft | 268 kts | 275° |
| 2026-05-05 16:20 | 32.03039 | 34.56462 | 10405 ft | 293 kts | 275° |
| 2026-05-05 16:21 | 32.03312 | 34.51378 | 11301 ft | 320 kts | 276° |
| 2026-05-05 16:22 | 32.07279 | 34.45452 | 13644 ft | 339 kts | 341° |
| 2026-05-05 16:22 | 32.12108 | 34.45529 | 15097 ft | 356 kts | 2° |
| 2026-05-05 16:23 | 32.17054 | 34.46221 | 16532 ft | 365 kts | 2° |
| 2026-05-05 16:23 | 32.19620 | 34.46579 | 17270 ft | 369 kts | 1° |
| 2026-05-05 16:23 | 32.24744 | 34.47276 | 18632 ft | 377 kts | 1° |
| 2026-05-05 16:24 | 32.27364 | 34.47603 | 19236 ft | 380 kts | 358° |
| 2026-05-05 16:24 | 32.29991 | 34.47467 | 19807 ft | 377 kts | 346° |
| 2026-05-05 16:24 | 32.34823 | 34.45323 | 20981 ft | 371 kts | 323° |
| 2026-05-05 16:25 | 32.36851 | 34.43454 | 21529 ft | 369 kts | 312° |
| 2026-05-05 16:25 | 32.40533 | 34.39151 | 22580 ft | 375 kts | 311° |
| 2026-05-05 16:25 | 32.42398 | 34.36968 | 23071 ft | 378 kts | 311° |
| 2026-05-05 16:26 | 32.46162 | 34.32562 | 23920 ft | 384 kts | 311° |
| 2026-05-05 16:26 | 32.49977 | 34.28103 | 24693 ft | 386 kts | 311° |
| 2026-05-05 16:27 | 32.51949 | 34.25923 | 25058 ft | 390 kts | 317° |
| 2026-05-05 16:27 | 32.54242 | 34.24158 | 25406 ft | 398 kts | 328° |
| 2026-05-05 16:27 | 32.56850 | 34.22950 | 25748 ft | 408 kts | 339° |
| 2026-05-05 16:27 | 32.59674 | 34.22375 | 26078 ft | 417 kts | 348° |
| 2026-05-05 16:28 | 32.62570 | 34.22061 | 26390 ft | 419 kts | 348° |
| 2026-05-05 16:28 | 32.65473 | 34.21739 | 26694 ft | 420 kts | 348° |
| 2026-05-05 16:28 | 32.68388 | 34.21408 | 27005 ft | 422 kts | 348° |
| 2026-05-05 16:28 | 32.71317 | 34.21075 | 27288 ft | 424 kts | 348° |
| 2026-05-05 16:29 | 32.74258 | 34.20740 | 27582 ft | 425 kts | 348° |
| 2026-05-05 16:29 | 32.77208 | 34.20402 | 27862 ft | 427 kts | 348° |
| 2026-05-05 16:29 | 32.80174 | 34.20061 | 28138 ft | 429 kts | 348° |
| 2026-05-05 16:29 | 32.83148 | 34.19720 | 28435 ft | 430 kts | 348° |
| 2026-05-05 16:30 | 32.86134 | 34.19376 | 28709 ft | 432 kts | 348° |
| 2026-05-05 16:30 | 32.89129 | 34.19031 | 28955 ft | 434 kts | 348° |
| 2026-05-05 16:30 | 32.92138 | 34.18685 | 29201 ft | 435 kts | 348° |
| 2026-05-05 16:30 | 32.95160 | 34.18336 | 29441 ft | 437 kts | 348° |
| 2026-05-05 16:31 | 32.98192 | 34.17988 | 29677 ft | 439 kts | 348° |
| 2026-05-05 16:31 | 33.01233 | 34.17638 | 29911 ft | 440 kts | 348° |
| 2026-05-05 16:31 | 33.04289 | 34.17287 | 30127 ft | 442 kts | 348° |
| 2026-05-05 16:31 | 33.07353 | 34.16937 | 30370 ft | 442 kts | 348° |
| 2026-05-05 16:32 | 33.10403 | 34.16594 | 30672 ft | 440 kts | 348° |
| 2026-05-05 16:32 | 33.13450 | 34.16254 | 30959 ft | 439 kts | 348° |
| 2026-05-05 16:32 | 33.16485 | 34.15908 | 31234 ft | 438 kts | 348° |
| 2026-05-05 16:32 | 33.19512 | 34.15560 | 31498 ft | 437 kts | 348° |
| 2026-05-05 16:33 | 33.22536 | 34.15207 | 31775 ft | 436 kts | 347° |
| 2026-05-05 16:33 | 33.25509 | 34.14861 | 32040 ft | 435 kts | 347° |
| 2026-05-05 16:33 | 33.28521 | 34.14511 | 32308 ft | 434 kts | 347° |
| 2026-05-05 16:33 | 33.31522 | 34.14163 | 32571 ft | 433 kts | 347° |
| 2026-05-05 16:34 | 33.34521 | 34.13815 | 32836 ft | 433 kts | 347° |
| 2026-05-05 16:34 | 33.37516 | 34.13469 | 33105 ft | 432 kts | 347° |
| 2026-05-05 16:34 | 33.40505 | 34.13124 | 33368 ft | 431 kts | 347° |
| 2026-05-05 16:34 | 33.43486 | 34.12779 | 33631 ft | 430 kts | 346° |
| 2026-05-05 16:35 | 33.46462 | 34.12434 | 33885 ft | 430 kts | 346° |
| 2026-05-05 16:35 | 33.49440 | 34.12086 | 33984 ft | 432 kts | 346° |
| 2026-05-05 16:35 | 33.55492 | 34.11375 | 34017 ft | 441 kts | 347° |
| 2026-05-05 16:36 | 33.61649 | 34.10652 | 34015 ft | 448 kts | 347° |
| 2026-05-05 16:36 | 33.67873 | 34.09937 | 34030 ft | 450 kts | 347° |
| 2026-05-05 16:37 | 33.74111 | 34.09222 | 34025 ft | 450 kts | 347° |
| 2026-05-05 16:37 | 33.80365 | 34.08776 | 34021 ft | 456 kts | 358° |
| 2026-05-05 16:38 | 33.86623 | 34.10637 | 34022 ft | 472 kts | 15° |
| 2026-05-05 16:38 | 33.92734 | 34.13525 | 34016 ft | 472 kts | 15° |
| 2026-05-05 16:39 | 33.98851 | 34.16406 | 34043 ft | 472 kts | 15° |
| 2026-05-05 16:39 | 34.05079 | 34.18236 | 34035 ft | 451 kts | 353° |
| 2026-05-05 16:40 | 34.11291 | 34.17761 | 34029 ft | 447 kts | 350° |
| 2026-05-05 16:40 | 34.17448 | 34.17210 | 34033 ft | 447 kts | 350° |
| 2026-05-05 16:41 | 34.23688 | 34.16652 | 34026 ft | 446 kts | 350° |
| 2026-05-05 16:41 | 34.29884 | 34.16104 | 34019 ft | 447 kts | 350° |
| 2026-05-05 16:42 | 34.36038 | 34.15560 | 34016 ft | 446 kts | 350° |
| 2026-05-05 16:42 | 34.42230 | 34.15023 | 34031 ft | 446 kts | 350° |
| 2026-05-05 16:43 | 34.48403 | 34.14480 | 34026 ft | 445 kts | 350° |
| 2026-05-05 16:43 | 34.54566 | 34.13931 | 34021 ft | 444 kts | 350° |
| 2026-05-05 16:44 | 34.60723 | 34.13382 | 34040 ft | 443 kts | 350° |
| 2026-05-05 16:44 | 34.66870 | 34.12846 | 34024 ft | 443 kts | 350° |
| 2026-05-05 16:45 | 34.73015 | 34.12309 | 34018 ft | 442 kts | 350° |
| 2026-05-05 16:45 | 34.79145 | 34.11761 | 34014 ft | 441 kts | 350° |
| 2026-05-05 16:46 | 34.85263 | 34.11213 | 34037 ft | 440 kts | 350° |
| 2026-05-05 16:46 | 34.91366 | 34.10663 | 34026 ft | 439 kts | 350° |
| 2026-05-05 16:47 | 34.97448 | 34.10113 | 34014 ft | 438 kts | 350° |
| 2026-05-05 16:47 | 35.03523 | 34.09569 | 34018 ft | 437 kts | 350° |
| 2026-05-05 16:48 | 35.09595 | 34.09035 | 34009 ft | 437 kts | 350° |
| 2026-05-05 16:48 | 35.15660 | 34.08495 | 34002 ft | 437 kts | 350° |
| 2026-05-05 16:49 | 35.21723 | 34.07947 | 33999 ft | 437 kts | 350° |
| 2026-05-05 16:49 | 35.27788 | 34.07395 | 34012 ft | 437 kts | 350° |
| 2026-05-05 16:50 | 35.33846 | 34.06846 | 34007 ft | 436 kts | 350° |
| 2026-05-05 16:50 | 35.39892 | 34.06300 | 34001 ft | 436 kts | 350° |
| 2026-05-05 16:51 | 35.45945 | 34.05754 | 33996 ft | 436 kts | 350° |
| 2026-05-05 16:51 | 35.51993 | 34.05211 | 33990 ft | 436 kts | 350° |
| 2026-05-05 16:52 | 35.58038 | 34.04662 | 33986 ft | 436 kts | 350° |
| 2026-05-05 16:52 | 35.64045 | 34.04119 | 33985 ft | 436 kts | 350° |
| 2026-05-05 16:53 | 35.70092 | 34.03571 | 33987 ft | 436 kts | 350° |
| 2026-05-05 16:53 | 35.76166 | 34.03020 | 33969 ft | 438 kts | 350° |
| 2026-05-05 16:54 | 35.82263 | 34.02464 | 33960 ft | 440 kts | 350° |
| 2026-05-05 16:54 | 35.88376 | 34.01868 | 33960 ft | 439 kts | 346° |
| 2026-05-05 16:55 | 35.93177 | 34.00201 | 33994 ft | 427 kts | 330° |
| 2026-05-05 16:55 | 35.98260 | 33.96552 | 33994 ft | 422 kts | 324° |
| 2026-05-05 16:56 | 36.03264 | 33.92776 | 34007 ft | 420 kts | 325° |
| 2026-05-05 16:56 | 36.08244 | 33.89018 | 34000 ft | 419 kts | 325° |
| 2026-05-05 16:57 | 36.13219 | 33.85253 | 33994 ft | 418 kts | 325° |
| 2026-05-05 16:57 | 36.18179 | 33.81488 | 33999 ft | 418 kts | 325° |
| 2026-05-05 16:58 | 36.23435 | 33.78411 | 33991 ft | 427 kts | 344° |
| 2026-05-05 16:58 | 36.26419 | 33.78105 | 33986 ft | 436 kts | 359° |
| 2026-05-05 16:58 | 36.29428 | 33.78816 | 33978 ft | 448 kts | 13° |
| 2026-05-05 16:59 | 36.32249 | 33.80550 | 33966 ft | 459 kts | 27° |
| 2026-05-05 16:59 | 36.34899 | 33.82769 | 33960 ft | 461 kts | 28° |
| 2026-05-05 16:59 | 36.40203 | 33.87253 | 33988 ft | 462 kts | 28° |
| 2026-05-05 17:00 | 36.45512 | 33.91745 | 33985 ft | 461 kts | 28° |
| 2026-05-05 17:00 | 36.50821 | 33.96220 | 34006 ft | 461 kts | 27° |
| 2026-05-05 17:01 | 36.56110 | 34.00675 | 34051 ft | 461 kts | 27° |
| 2026-05-05 17:01 | 36.58772 | 34.02923 | 34319 ft | 457 kts | 27° |
| 2026-05-05 17:01 | 36.61396 | 34.05144 | 34499 ft | 456 kts | 27° |
| 2026-05-05 17:02 | 36.64019 | 34.07365 | 34629 ft | 456 kts | 27° |
| 2026-05-05 17:02 | 36.66642 | 34.09588 | 34756 ft | 457 kts | 28° |
| 2026-05-05 17:02 | 36.69266 | 34.11818 | 34919 ft | 457 kts | 28° |
| 2026-05-05 17:02 | 36.71889 | 34.14050 | 34989 ft | 458 kts | 28° |
| 2026-05-05 17:03 | 36.77169 | 34.18545 | 35001 ft | 460 kts | 28° |
| 2026-05-05 17:03 | 36.82462 | 34.23062 | 34994 ft | 462 kts | 28° |
| 2026-05-05 17:04 | 36.87768 | 34.27594 | 34998 ft | 461 kts | 28° |
| 2026-05-05 17:04 | 36.93052 | 34.32103 | 34996 ft | 459 kts | 28° |
| 2026-05-05 17:05 | 36.98323 | 34.36621 | 35005 ft | 459 kts | 28° |
| 2026-05-05 17:05 | 37.03589 | 34.41144 | 35017 ft | 459 kts | 28° |
| 2026-05-05 17:06 | 37.08818 | 34.45638 | 35012 ft | 459 kts | 28° |
| 2026-05-05 17:06 | 37.14079 | 34.50167 | 35033 ft | 459 kts | 28° |
| 2026-05-05 17:07 | 37.19340 | 34.54692 | 35032 ft | 458 kts | 28° |
| 2026-05-05 17:07 | 37.24595 | 34.59227 | 35035 ft | 459 kts | 29° |
| 2026-05-05 17:08 | 37.29849 | 34.63780 | 35032 ft | 459 kts | 29° |
| 2026-05-05 17:08 | 37.35097 | 34.68333 | 35037 ft | 458 kts | 29° |
| 2026-05-05 17:09 | 37.40340 | 34.72888 | 35035 ft | 458 kts | 29° |
| 2026-05-05 17:09 | 37.45580 | 34.77443 | 35024 ft | 458 kts | 29° |
| 2026-05-05 17:10 | 37.50822 | 34.82018 | 35038 ft | 459 kts | 30° |
| 2026-05-05 17:10 | 37.56061 | 34.86602 | 35032 ft | 459 kts | 30° |
| 2026-05-05 17:11 | 37.61302 | 34.91184 | 35032 ft | 458 kts | 30° |
| 2026-05-05 17:11 | 37.66538 | 34.95770 | 35031 ft | 458 kts | 30° |
| 2026-05-05 17:12 | 37.71768 | 35.00356 | 35037 ft | 458 kts | 30° |
| 2026-05-05 17:12 | 37.76997 | 35.04949 | 35026 ft | 457 kts | 30° |
| 2026-05-05 17:13 | 37.82212 | 35.09540 | 35040 ft | 456 kts | 31° |
| 2026-05-05 17:13 | 37.87415 | 35.14133 | 35036 ft | 456 kts | 31° |
| 2026-05-05 17:14 | 37.92609 | 35.18723 | 35036 ft | 455 kts | 31° |
| 2026-05-05 17:14 | 37.97761 | 35.23286 | 35028 ft | 455 kts | 31° |
| 2026-05-05 17:15 | 38.02988 | 35.27912 | 35016 ft | 455 kts | 31° |
| 2026-05-05 17:15 | 38.08185 | 35.32526 | 35015 ft | 456 kts | 32° |
| 2026-05-05 17:16 | 38.13381 | 35.37157 | 34997 ft | 458 kts | 32° |
| 2026-05-05 17:16 | 38.18589 | 35.41808 | 34996 ft | 462 kts | 32° |
| 2026-05-05 17:17 | 38.23858 | 35.46510 | 34993 ft | 463 kts | 32° |
| 2026-05-05 17:17 | 38.29130 | 35.51228 | 34998 ft | 464 kts | 32° |
| 2026-05-05 17:18 | 38.34414 | 35.55970 | 34997 ft | 465 kts | 32° |
| 2026-05-05 17:18 | 38.39702 | 35.60728 | 35006 ft | 466 kts | 33° |
| 2026-05-05 17:19 | 38.44970 | 35.65484 | 35005 ft | 465 kts | 33° |
| 2026-05-05 17:19 | 38.50266 | 35.70282 | 35009 ft | 465 kts | 33° |
| 2026-05-05 17:20 | 38.55549 | 35.75059 | 35013 ft | 465 kts | 33° |
| 2026-05-05 17:20 | 38.60827 | 35.79841 | 35012 ft | 466 kts | 33° |
| 2026-05-05 17:21 | 38.66120 | 35.84646 | 35000 ft | 467 kts | 33° |
| 2026-05-05 17:22 | 38.74065 | 35.91868 | 35009 ft | 468 kts | 33° |
| 2026-05-05 17:22 | 38.79363 | 35.96708 | 35010 ft | 468 kts | 33° |
| 2026-05-05 17:23 | 38.84663 | 36.01565 | 35011 ft | 468 kts | 33° |
| 2026-05-05 17:23 | 38.89958 | 36.06423 | 35020 ft | 468 kts | 33° |
| 2026-05-05 17:24 | 38.95252 | 36.11286 | 35025 ft | 468 kts | 33° |
| 2026-05-05 17:24 | 39.00544 | 36.16153 | 35016 ft | 468 kts | 34° |
| 2026-05-05 17:25 | 39.05799 | 36.20992 | 35022 ft | 468 kts | 34° |
| 2026-05-05 17:25 | 39.11094 | 36.25871 | 35030 ft | 469 kts | 34° |
| 2026-05-05 17:26 | 39.16397 | 36.30771 | 35037 ft | 469 kts | 34° |
| 2026-05-05 17:26 | 39.21694 | 36.35678 | 35031 ft | 469 kts | 34° |
| 2026-05-05 17:27 | 39.27002 | 36.40604 | 35038 ft | 470 kts | 34° |
| 2026-05-05 17:27 | 39.32309 | 36.45543 | 35023 ft | 470 kts | 34° |
| 2026-05-05 17:28 | 39.37617 | 36.50498 | 35033 ft | 471 kts | 35° |
| 2026-05-05 17:28 | 39.42936 | 36.55471 | 35018 ft | 472 kts | 35° |
| 2026-05-05 17:29 | 39.48273 | 36.60460 | 35017 ft | 474 kts | 35° |
| 2026-05-05 17:29 | 39.53620 | 36.65466 | 35013 ft | 475 kts | 35° |
| 2026-05-05 17:30 | 39.58972 | 36.70490 | 35008 ft | 475 kts | 35° |
| 2026-05-05 17:30 | 39.64297 | 36.75492 | 35009 ft | 476 kts | 35° |
| 2026-05-05 17:31 | 39.69669 | 36.80560 | 35010 ft | 476 kts | 36° |
| 2026-05-05 17:31 | 39.75028 | 36.85620 | 35009 ft | 476 kts | 36° |
| 2026-05-05 17:32 | 39.79768 | 36.91571 | 35008 ft | 476 kts | 55° |
| 2026-05-05 17:32 | 39.83125 | 36.98979 | 35005 ft | 476 kts | 61° |
| 2026-05-05 17:33 | 39.86386 | 37.06476 | 35005 ft | 476 kts | 61° |
| 2026-05-05 17:33 | 39.89648 | 37.13981 | 35008 ft | 476 kts | 61° |
| 2026-05-05 17:34 | 39.92901 | 37.21498 | 35010 ft | 477 kts | 61° |
| 2026-05-05 17:34 | 39.96142 | 37.29045 | 35006 ft | 477 kts | 62° |
| 2026-05-05 17:35 | 39.99358 | 37.36544 | 35006 ft | 477 kts | 61° |
| 2026-05-05 17:35 | 40.02601 | 37.44101 | 35008 ft | 477 kts | 62° |
| 2026-05-05 17:36 | 40.05837 | 37.51672 | 35010 ft | 478 kts | 62° |
| 2026-05-05 17:36 | 40.09068 | 37.59251 | 35015 ft | 478 kts | 62° |
| 2026-05-05 17:37 | 40.12310 | 37.66820 | 35015 ft | 477 kts | 62° |
| 2026-05-05 17:37 | 40.15553 | 37.74388 | 35003 ft | 477 kts | 62° |
| 2026-05-05 17:38 | 40.18787 | 37.81977 | 35009 ft | 477 kts | 62° |
| 2026-05-05 17:38 | 40.22018 | 37.89563 | 35000 ft | 478 kts | 62° |
| 2026-05-05 17:39 | 40.25246 | 37.97161 | 35013 ft | 478 kts | 62° |
| 2026-05-05 17:39 | 40.28467 | 38.04770 | 35004 ft | 478 kts | 62° |
| 2026-05-05 17:40 | 40.31659 | 38.12342 | 35006 ft | 478 kts | 62° |
| 2026-05-05 17:40 | 40.34845 | 38.19995 | 35016 ft | 478 kts | 63° |
| 2026-05-05 17:41 | 40.37927 | 38.27721 | 35014 ft | 478 kts | 64° |
| 2026-05-05 17:41 | 40.41083 | 38.35395 | 35018 ft | 477 kts | 62° |
| 2026-05-05 17:42 | 40.44380 | 38.42954 | 35024 ft | 478 kts | 62° |
| 2026-05-05 17:42 | 40.47690 | 38.50513 | 34993 ft | 477 kts | 62° |
| 2026-05-05 17:43 | 40.50959 | 38.58105 | 35000 ft | 478 kts | 63° |
| 2026-05-05 17:43 | 40.54132 | 38.65794 | 35029 ft | 479 kts | 64° |
| 2026-05-05 17:44 | 40.56718 | 38.72231 | 35033 ft | 478 kts | 64° |
| 2026-05-05 17:44 | 40.59836 | 38.79958 | 35050 ft | 479 kts | 64° |
| 2026-05-05 17:45 | 40.62975 | 38.87691 | 35055 ft | 479 kts | 64° |
| 2026-05-05 17:45 | 40.66112 | 38.95432 | 35062 ft | 478 kts | 64° |
| 2026-05-05 17:46 | 40.69235 | 39.03172 | 35065 ft | 478 kts | 64° |
| 2026-05-05 17:46 | 40.72340 | 39.10919 | 35070 ft | 478 kts | 64° |
| 2026-05-05 17:47 | 40.75438 | 39.18669 | 35056 ft | 477 kts | 64° |
| 2026-05-05 17:47 | 40.78533 | 39.26420 | 35049 ft | 478 kts | 64° |
| 2026-05-05 17:48 | 40.81623 | 39.34179 | 35060 ft | 478 kts | 64° |
| 2026-05-05 17:48 | 40.84704 | 39.41951 | 35059 ft | 478 kts | 64° |
| 2026-05-05 17:49 | 40.87781 | 39.49730 | 35060 ft | 478 kts | 65° |
| 2026-05-05 17:49 | 40.90861 | 39.57506 | 35071 ft | 478 kts | 65° |
| 2026-05-05 17:50 | 40.93916 | 39.65243 | 35073 ft | 478 kts | 65° |
| 2026-05-05 17:50 | 40.96976 | 39.73036 | 35064 ft | 477 kts | 65° |
| 2026-05-05 17:51 | 40.99675 | 39.81005 | 35060 ft | 472 kts | 77° |
| 2026-05-05 17:51 | 41.01019 | 39.89474 | 35064 ft | 470 kts | 82° |
| 2026-05-05 17:52 | 41.02293 | 39.97960 | 35066 ft | 470 kts | 82° |
| 2026-05-05 17:52 | 41.03562 | 40.06447 | 35060 ft | 470 kts | 82° |
| 2026-05-05 17:53 | 41.04816 | 40.14940 | 35061 ft | 469 kts | 82° |
| 2026-05-05 17:53 | 41.06063 | 40.23421 | 35072 ft | 469 kts | 82° |
| 2026-05-05 17:54 | 41.07308 | 40.31901 | 35071 ft | 469 kts | 82° |
| 2026-05-05 17:54 | 41.08548 | 40.40385 | 35068 ft | 469 kts | 82° |
| 2026-05-05 17:55 | 41.09775 | 40.48839 | 35076 ft | 469 kts | 82° |
| 2026-05-05 17:55 | 41.10996 | 40.57327 | 35073 ft | 468 kts | 82° |
| 2026-05-05 17:56 | 41.12213 | 40.65808 | 35075 ft | 468 kts | 82° |
| 2026-05-05 17:56 | 41.13420 | 40.74297 | 35058 ft | 468 kts | 82° |
| 2026-05-05 17:57 | 41.14620 | 40.82789 | 35053 ft | 468 kts | 82° |
| 2026-05-05 17:57 | 41.15824 | 40.91286 | 35066 ft | 469 kts | 82° |
| 2026-05-05 17:58 | 41.17020 | 40.99738 | 35069 ft | 469 kts | 82° |
| 2026-05-05 17:58 | 41.18201 | 41.08241 | 35067 ft | 468 kts | 83° |
| 2026-05-05 17:59 | 41.19376 | 41.16742 | 35059 ft | 468 kts | 82° |
| 2026-05-05 17:59 | 41.20550 | 41.25256 | 35038 ft | 469 kts | 83° |
| 2026-05-05 18:00 | 41.21717 | 41.33779 | 35034 ft | 470 kts | 83° |
| 2026-05-05 18:00 | 41.22884 | 41.42310 | 35033 ft | 470 kts | 83° |
| 2026-05-05 18:01 | 41.24050 | 41.50849 | 35036 ft | 470 kts | 83° |
| 2026-05-05 18:01 | 41.25202 | 41.59406 | 35030 ft | 471 kts | 83° |
| 2026-05-05 18:02 | 41.26337 | 41.67975 | 35036 ft | 471 kts | 83° |
| 2026-05-05 18:02 | 41.27476 | 41.76545 | 35041 ft | 471 kts | 83° |
| 2026-05-05 18:03 | 41.28616 | 41.85117 | 35046 ft | 471 kts | 83° |
| 2026-05-05 18:03 | 41.29746 | 41.93688 | 35027 ft | 471 kts | 83° |
| 2026-05-05 18:04 | 41.30871 | 42.02271 | 35023 ft | 471 kts | 83° |
| 2026-05-05 18:04 | 41.31977 | 42.10856 | 35010 ft | 471 kts | 83° |
| 2026-05-05 18:05 | 41.33062 | 42.19450 | 35006 ft | 471 kts | 83° |
| 2026-05-05 18:05 | 41.34152 | 42.28044 | 35008 ft | 471 kts | 83° |
| 2026-05-05 18:06 | 41.35246 | 42.36645 | 34984 ft | 472 kts | 83° |
| 2026-05-05 18:06 | 41.36332 | 42.45257 | 34992 ft | 472 kts | 83° |
| 2026-05-05 18:07 | 41.37408 | 42.53879 | 34986 ft | 472 kts | 84° |
| 2026-05-05 18:07 | 41.38487 | 42.62510 | 34975 ft | 473 kts | 84° |
| 2026-05-05 18:08 | 41.39546 | 42.71093 | 34979 ft | 473 kts | 84° |
| 2026-05-05 18:08 | 41.40605 | 42.79748 | 34972 ft | 473 kts | 84° |
| 2026-05-05 18:09 | 41.41661 | 42.88389 | 34973 ft | 473 kts | 84° |
| 2026-05-05 18:09 | 41.42698 | 42.97050 | 34980 ft | 474 kts | 84° |
| 2026-05-05 18:10 | 41.43739 | 43.05719 | 34970 ft | 474 kts | 84° |
| 2026-05-05 18:10 | 41.44785 | 43.14417 | 34968 ft | 476 kts | 84° |
| 2026-05-05 18:11 | 41.45822 | 43.23146 | 34975 ft | 477 kts | 84° |
| 2026-05-05 18:11 | 41.46847 | 43.31887 | 34985 ft | 478 kts | 84° |
| 2026-05-05 18:12 | 41.47876 | 43.40654 | 34992 ft | 479 kts | 84° |
| 2026-05-05 18:12 | 41.48734 | 43.48005 | 35005 ft | 479 kts | 84° |
| 2026-05-05 18:13 | 41.49922 | 43.58217 | 35004 ft | 479 kts | 84° |
| 2026-05-05 18:13 | 41.50927 | 43.67006 | 34999 ft | 479 kts | 84° |
| 2026-05-05 18:14 | 41.51920 | 43.75811 | 34997 ft | 481 kts | 84° |
| 2026-05-05 18:14 | 41.52924 | 43.84636 | 35010 ft | 481 kts | 84° |
| 2026-05-05 18:15 | 41.53922 | 43.93460 | 34997 ft | 481 kts | 84° |
| 2026-05-05 18:15 | 41.54903 | 44.02303 | 35006 ft | 482 kts | 84° |
| 2026-05-05 18:16 | 41.55877 | 44.11162 | 35005 ft | 483 kts | 84° |
| 2026-05-05 18:16 | 41.56719 | 44.20039 | 35002 ft | 480 kts | 92° |
| 2026-05-05 18:17 | 41.55823 | 44.28731 | 34989 ft | 470 kts | 112° |
| 2026-05-05 18:17 | 41.53761 | 44.37009 | 34989 ft | 470 kts | 112° |
| 2026-05-05 18:18 | 41.51707 | 44.45293 | 34989 ft | 471 kts | 112° |
| 2026-05-05 18:18 | 41.49651 | 44.53585 | 34991 ft | 471 kts | 112° |
| 2026-05-05 18:19 | 41.47586 | 44.61872 | 34987 ft | 471 kts | 112° |
| 2026-05-05 18:19 | 41.45568 | 44.69990 | 34976 ft | 471 kts | 112° |
| 2026-05-05 18:20 | 41.43483 | 44.78271 | 34980 ft | 472 kts | 112° |
| 2026-05-05 18:20 | 41.41389 | 44.86550 | 34995 ft | 472 kts | 112° |
| 2026-05-05 18:21 | 41.39287 | 44.94836 | 34968 ft | 472 kts | 113° |
| 2026-05-05 18:21 | 41.37182 | 45.03128 | 34966 ft | 473 kts | 113° |
| 2026-05-05 18:22 | 41.35073 | 45.11418 | 34980 ft | 473 kts | 113° |
| 2026-05-05 18:22 | 41.32952 | 45.19713 | 34962 ft | 473 kts | 113° |
| 2026-05-05 18:23 | 41.30823 | 45.27989 | 34955 ft | 474 kts | 114° |
| 2026-05-05 18:23 | 41.28701 | 45.36225 | 34955 ft | 474 kts | 114° |
| 2026-05-05 18:24 | 41.26559 | 45.44518 | 34944 ft | 474 kts | 114° |
| 2026-05-05 18:24 | 41.24408 | 45.52798 | 34922 ft | 475 kts | 114° |
| 2026-05-05 18:25 | 41.22250 | 45.61082 | 34932 ft | 475 kts | 114° |
| 2026-05-05 18:25 | 41.20084 | 45.69368 | 34928 ft | 475 kts | 114° |
| 2026-05-05 18:26 | 41.17903 | 45.77657 | 34923 ft | 475 kts | 114° |
| 2026-05-05 18:26 | 41.15717 | 45.85927 | 34913 ft | 475 kts | 115° |
| 2026-05-05 18:27 | 41.13525 | 45.94197 | 34915 ft | 475 kts | 115° |
| 2026-05-05 18:27 | 41.11331 | 46.02469 | 34913 ft | 475 kts | 115° |
| 2026-05-05 18:28 | 41.08036 | 46.14803 | 34894 ft | 475 kts | 115° |
| 2026-05-05 18:28 | 41.05816 | 46.23064 | 34911 ft | 476 kts | 115° |
| 2026-05-05 18:29 | 41.03591 | 46.31327 | 34916 ft | 477 kts | 115° |
| 2026-05-05 18:29 | 41.01382 | 46.39613 | 34924 ft | 477 kts | 116° |
| 2026-05-05 18:30 | 40.99178 | 46.47906 | 34900 ft | 478 kts | 116° |
| 2026-05-05 18:30 | 40.96948 | 46.56201 | 34911 ft | 479 kts | 116° |
| 2026-05-05 18:31 | 40.94707 | 46.64499 | 34928 ft | 479 kts | 116° |
| 2026-05-05 18:31 | 40.92461 | 46.72806 | 34934 ft | 480 kts | 116° |
| 2026-05-05 18:32 | 40.90276 | 46.81161 | 34910 ft | 485 kts | 111° |
| 2026-05-05 18:32 | 40.89337 | 46.90115 | 34928 ft | 495 kts | 101° |
| 2026-05-05 18:33 | 40.88690 | 46.99176 | 34932 ft | 496 kts | 102° |
| 2026-05-05 18:33 | 40.88139 | 47.06707 | 34935 ft | 496 kts | 102° |
| 2026-05-05 18:34 | 40.87465 | 47.15783 | 34913 ft | 496 kts | 103° |
| 2026-05-05 18:34 | 40.86677 | 47.26335 | 34926 ft | 496 kts | 103° |
| 2026-05-05 18:35 | 40.86102 | 47.33927 | 34958 ft | 496 kts | 103° |
| 2026-05-05 18:35 | 40.85404 | 47.42985 | 34973 ft | 496 kts | 103° |
| 2026-05-05 18:36 | 40.84565 | 47.52002 | 34985 ft | 489 kts | 110° |
| 2026-05-05 18:36 | 40.82868 | 47.60639 | 34975 ft | 486 kts | 112° |
| 2026-05-05 18:37 | 40.81163 | 47.69209 | 34969 ft | 486 kts | 112° |
| 2026-05-05 18:37 | 40.79447 | 47.77838 | 34985 ft | 486 kts | 112° |
| 2026-05-05 18:38 | 40.77735 | 47.86425 | 35004 ft | 482 kts | 112° |
| 2026-05-05 18:38 | 40.76027 | 47.94932 | 34915 ft | 477 kts | 113° |
| 2026-05-05 18:39 | 40.75173 | 47.99156 | 34521 ft | 476 kts | 113° |
| 2026-05-05 18:39 | 40.74305 | 48.03411 | 33354 ft | 484 kts | 113° |
| 2026-05-05 18:39 | 40.73424 | 48.07708 | 32367 ft | 486 kts | 114° |
| 2026-05-05 18:39 | 40.72542 | 48.12028 | 31283 ft | 490 kts | 114° |
| 2026-05-05 18:40 | 40.71655 | 48.16375 | 30335 ft | 491 kts | 114° |
| 2026-05-05 18:40 | 40.70781 | 48.20699 | 29629 ft | 485 kts | 114° |
| 2026-05-05 18:40 | 40.69921 | 48.24963 | 28944 ft | 478 kts | 114° |
| 2026-05-05 18:40 | 40.69071 | 48.29163 | 28258 ft | 472 kts | 114° |
| 2026-05-05 18:41 | 40.68223 | 48.33316 | 27590 ft | 467 kts | 114° |
| 2026-05-05 18:41 | 40.67375 | 48.37431 | 26928 ft | 463 kts | 114° |
| 2026-05-05 18:41 | 40.66532 | 48.41506 | 26273 ft | 459 kts | 114° |
| 2026-05-05 18:41 | 40.65695 | 48.45540 | 25634 ft | 455 kts | 114° |
| 2026-05-05 18:42 | 40.64862 | 48.49550 | 24993 ft | 452 kts | 114° |
| 2026-05-05 18:42 | 40.64035 | 48.53520 | 24368 ft | 449 kts | 114° |
| 2026-05-05 18:42 | 40.63210 | 48.57478 | 23735 ft | 446 kts | 114° |
| 2026-05-05 18:42 | 40.62392 | 48.61401 | 23093 ft | 443 kts | 114° |
| 2026-05-05 18:43 | 40.61582 | 48.65284 | 22521 ft | 437 kts | 114° |
| 2026-05-05 18:43 | 40.60783 | 48.69122 | 21994 ft | 433 kts | 114° |
| 2026-05-05 18:43 | 40.59992 | 48.72916 | 21472 ft | 426 kts | 114° |
| 2026-05-05 18:43 | 40.59210 | 48.76658 | 20974 ft | 422 kts | 114° |
| 2026-05-05 18:44 | 40.58427 | 48.80375 | 20470 ft | 421 kts | 114° |
| 2026-05-05 18:44 | 40.57646 | 48.84074 | 19967 ft | 419 kts | 114° |
| 2026-05-05 18:44 | 40.56866 | 48.87755 | 19466 ft | 417 kts | 113° |
| 2026-05-05 18:44 | 40.56090 | 48.91415 | 18949 ft | 415 kts | 113° |
| 2026-05-05 18:45 | 40.55330 | 48.95001 | 18445 ft | 411 kts | 113° |
| 2026-05-05 18:45 | 40.54562 | 48.98618 | 17883 ft | 409 kts | 113° |
| 2026-05-05 18:45 | 40.53801 | 49.02207 | 17360 ft | 406 kts | 112° |
| 2026-05-05 18:45 | 40.53046 | 49.05769 | 16826 ft | 402 kts | 112° |
| 2026-05-05 18:46 | 40.52298 | 49.09293 | 16306 ft | 400 kts | 112° |
| 2026-05-05 18:46 | 40.51553 | 49.12801 | 15775 ft | 398 kts | 112° |
| 2026-05-05 18:46 | 40.50809 | 49.16292 | 15253 ft | 396 kts | 111° |
| 2026-05-05 18:46 | 40.50066 | 49.19763 | 14718 ft | 394 kts | 111° |
| 2026-05-05 18:47 | 40.49322 | 49.23225 | 14172 ft | 393 kts | 111° |
| 2026-05-05 18:47 | 40.48581 | 49.26665 | 13631 ft | 389 kts | 110° |
| 2026-05-05 18:47 | 40.47851 | 49.30069 | 13083 ft | 385 kts | 110° |
| 2026-05-05 18:47 | 40.47128 | 49.33441 | 12549 ft | 382 kts | 110° |
| 2026-05-05 18:48 | 40.46412 | 49.36779 | 12005 ft | 378 kts | 110° |
| 2026-05-05 18:48 | 40.45700 | 49.40083 | 11469 ft | 374 kts | 110° |
| 2026-05-05 18:48 | 40.44989 | 49.43355 | 10922 ft | 371 kts | 109° |
| 2026-05-05 18:48 | 40.44281 | 49.46595 | 10511 ft | 364 kts | 109° |
| 2026-05-05 18:49 | 40.43603 | 49.49721 | 10393 ft | 349 kts | 109° |
| 2026-05-05 18:49 | 40.42956 | 49.52724 | 10271 ft | 335 kts | 109° |
| 2026-05-05 18:49 | 40.42343 | 49.55576 | 10128 ft | 314 kts | 109° |
| 2026-05-05 18:49 | 40.41762 | 49.58260 | 9866 ft | 299 kts | 109° |
| 2026-05-05 18:50 | 40.41190 | 49.60866 | 9533 ft | 294 kts | 110° |
| 2026-05-05 18:50 | 40.40619 | 49.63447 | 9123 ft | 295 kts | 109° |
| 2026-05-05 18:50 | 40.40051 | 49.66020 | 8794 ft | 292 kts | 109° |
| 2026-05-05 18:50 | 40.39484 | 49.68590 | 8341 ft | 292 kts | 109° |
| 2026-05-05 18:51 | 40.38926 | 49.71127 | 7993 ft | 288 kts | 109° |
| 2026-05-05 18:51 | 40.38374 | 49.73646 | 7600 ft | 286 kts | 109° |
| 2026-05-05 18:51 | 40.37829 | 49.76130 | 6989 ft | 282 kts | 109° |
| 2026-05-05 18:51 | 40.37290 | 49.78587 | 6372 ft | 279 kts | 109° |
| 2026-05-05 18:52 | 40.36765 | 49.80976 | 5830 ft | 274 kts | 109° |
| 2026-05-05 18:52 | 40.36238 | 49.83359 | 5359 ft | 271 kts | 108° |
| 2026-05-05 18:52 | 40.35713 | 49.85729 | 4913 ft | 270 kts | 108° |
| 2026-05-05 18:52 | 40.35191 | 49.88088 | 4435 ft | 271 kts | 108° |
| 2026-05-05 18:53 | 40.34672 | 49.90442 | 3979 ft | 265 kts | 107° |
| 2026-05-05 18:53 | 40.34161 | 49.92744 | 3545 ft | 261 kts | 105° |
| 2026-05-05 18:53 | 40.33672 | 49.94919 | 3447 ft | 237 kts | 104° |
| 2026-05-05 18:53 | 40.33215 | 49.96936 | 3383 ft | 229 kts | 104° |
| 2026-05-05 18:54 | 40.32778 | 49.98889 | 3290 ft | 218 kts | 104° |
| 2026-05-05 18:54 | 40.32366 | 50.00749 | 3194 ft | 207 kts | 104° |
| 2026-05-05 18:54 | 40.31969 | 50.02540 | 3102 ft | 203 kts | 103° |
| 2026-05-05 18:54 | 40.31796 | 50.04336 | 3013 ft | 196 kts | 79° |
| 2026-05-05 18:55 | 40.32237 | 50.05941 | 2840 ft | 184 kts | 54° |
| 2026-05-05 18:55 | 40.33134 | 50.07057 | 2491 ft | 173 kts | 28° |
| 2026-05-05 18:55 | 40.34226 | 50.07506 | 2268 ft | 159 kts | 5° |
| 2026-05-05 18:55 | 40.35280 | 50.07374 | 2121 ft | 152 kts | 348° |
| 2026-05-05 18:56 | 40.36307 | 50.07051 | 1913 ft | 151 kts | 349° |
| 2026-05-05 18:56 | 40.37326 | 50.06735 | 1717 ft | 147 kts | 348° |
| 2026-05-05 18:56 | 40.38285 | 50.06434 | 1507 ft | 138 kts | 348° |
| 2026-05-05 18:56 | 40.39209 | 50.06145 | 1325 ft | 136 kts | 348° |
| 2026-05-05 18:57 | 40.40123 | 50.05858 | 1137 ft | 134 kts | 348° |
| 2026-05-05 18:57 | 40.41028 | 50.05576 | 962 ft | 133 kts | 347° |
| 2026-05-05 18:57 | 40.41931 | 50.05291 | 781 ft | 134 kts | 347° |
| 2026-05-05 18:57 | 40.42831 | 50.05012 | 601 ft | 133 kts | 347° |
| 2026-05-05 18:58 | 40.43727 | 50.04730 | 421 ft | 132 kts | 346° |
| 2026-05-05 18:58 | 40.44621 | 50.04449 | 243 ft | 132 kts | 346° |
| 2026-05-05 18:58 | 40.45519 | 50.04167 | 60 ft | 133 kts | 346° |
| 2026-05-05 18:58 | 40.46358 | 50.03903 | 8 ft | 106 kts | 346° |
| 2026-05-05 18:59 | 40.46920 | 50.03726 | 9 ft | 68 kts | 346° |
| 2026-05-05 18:59 | 40.47338 | 50.03595 | 11 ft | 57 kts | 346° |
| 2026-05-05 18:59 | 40.47624 | 50.03504 | 10 ft | 28 kts | 350° |
| 2026-05-05 18:59 | 40.47695 | 50.03621 | 9 ft | 19 kts | 116° |
| 2026-05-05 19:00 | 40.47604 | 50.03651 | 10 ft | 15 kts | 180° |
| 2026-05-05 19:00 | 40.47466 | 50.03700 | 10 ft | 27 kts | 159° |
| 2026-05-05 19:00 | 40.47286 | 50.03790 | 11 ft | 28 kts | 159° |
| 2026-05-05 19:00 | 40.47099 | 50.03883 | 9 ft | 29 kts | 159° |
| 2026-05-05 19:01 | 40.46926 | 50.03967 | 10 ft | 20 kts | 160° |
| 2026-05-05 19:01 | 40.46836 | 50.04030 | 9 ft | 14 kts | 159° |
| 2026-05-05 19:01 | 40.46685 | 50.04087 | 9 ft | 26 kts | 165° |
| 2026-05-05 19:01 | 40.46542 | 50.04203 | 9 ft | 23 kts | 102° |
| 2026-05-05 19:02 | 40.46548 | 50.04369 | 10 ft | 20 kts | 92° |
| 2026-05-05 19:02 | 40.46546 | 50.04559 | 9 ft | 22 kts | 88° |
| 2026-05-05 19:02 | 40.46553 | 50.04763 | 9 ft | 23 kts | 87° |
| 2026-05-05 19:02 | 40.46591 | 50.04923 | 9 ft | 15 kts | 41° |
| 2026-05-05 19:03 | 40.46587 | 50.05005 | 9 ft | 7 kts | 107° |
| 2026-05-05 19:03 | 40.46582 | 50.05024 | 9 ft | 2 kts | 111° |